createdAt,value
2023-03-01T00:00:21.955Z,1.30
2023-03-01T00:02:43.658Z,1.28
2023-03-01T00:05:06.103Z,1.27
2023-03-01T00:07:27.724Z,1.25
2023-03-01T00:09:50.329Z,1.23
2023-03-01T00:12:12.113Z,1.21
2023-03-01T00:14:34.641Z,1.17
2023-03-01T00:16:57.163Z,1.16
2023-03-01T00:19:22.853Z,1.11
2023-03-01T00:21:44.810Z,1.02
2023-03-01T00:24:07.248Z,0.95
2023-03-01T00:26:29.652Z,0.89
2023-03-01T00:28:52.469Z,0.87
2023-03-01T00:31:23.784Z,0.84
2023-03-01T00:33:46.347Z,0.84
2023-03-01T00:36:09.737Z,0.81
2023-03-01T00:38:35.096Z,0.81
2023-03-01T00:40:56.862Z,0.81
2023-03-01T00:43:19.040Z,0.81
2023-03-01T00:45:40.723Z,0.81
2023-03-01T00:48:02.346Z,0.81
2023-03-01T00:50:24.621Z,0.79
2023-03-01T00:52:47.861Z,0.79
2023-03-01T00:55:10.256Z,0.77
2023-03-01T00:57:33.186Z,0.76
2023-03-01T00:59:54.797Z,0.73
2023-03-01T01:02:16.458Z,0.71
2023-03-01T01:04:38.104Z,0.70
2023-03-01T01:06:59.751Z,0.67
2023-03-01T01:09:21.420Z,0.65
2023-03-01T01:11:43.396Z,0.63
2023-03-01T01:14:05.411Z,0.59
2023-03-01T01:16:29.351Z,0.57
2023-03-01T01:18:51.571Z,0.53
2023-03-01T01:21:17.492Z,0.51
2023-03-01T01:23:41.648Z,0.48
2023-03-01T01:26:14.345Z,0.42
2023-03-01T01:28:36.548Z,0.39
2023-03-01T01:30:58.376Z,0.39
2023-03-01T01:33:20.011Z,0.39
2023-03-01T01:35:41.699Z,0.38
2023-03-01T01:38:03.567Z,0.39
2023-03-01T01:40:25.224Z,0.41
2023-03-01T01:42:46.945Z,0.40
2023-03-01T01:45:34.817Z,0.39
2023-03-01T01:48:04.688Z,0.33
2023-03-01T01:50:27.882Z,0.31
2023-03-01T01:52:54.572Z,0.26
2023-03-01T01:55:22.590Z,0.21
2023-03-01T01:57:54.214Z,0.14
2023-03-01T02:00:27.440Z,0.12
2023-03-01T02:02:56.168Z,0.08
2023-03-01T02:05:33.297Z,0.04
2023-03-01T02:07:55.773Z,0.01
2023-03-01T02:10:18.091Z,-0.04
2023-03-01T02:12:40.597Z,-0.08
2023-03-01T02:15:02.275Z,-0.11
2023-03-01T02:17:24.536Z,-0.12
2023-03-01T02:20:08.061Z,-0.14
2023-03-01T02:22:33.894Z,-0.16
2023-03-01T02:25:19.182Z,-0.17
2023-03-01T02:28:11.936Z,-0.20
2023-03-01T02:30:35.495Z,-0.21
2023-03-01T02:33:03.952Z,-0.20
2023-03-01T02:35:26.019Z,-0.19
2023-03-01T02:37:49.417Z,-0.20
2023-03-01T02:40:18.527Z,-0.18
2023-03-01T02:42:51.952Z,-0.17
2023-03-01T02:45:14.180Z,-0.16
2023-03-01T02:47:36.414Z,-0.14
2023-03-01T02:49:58.684Z,-0.14
2023-03-01T02:52:29.834Z,-0.15
2023-03-01T02:55:15.363Z,-0.20
2023-03-01T02:57:43.530Z,-0.32
2023-03-01T03:00:20.241Z,-0.37
2023-03-01T03:02:43.094Z,-0.40
2023-03-01T03:05:21.376Z,-0.43
2023-03-01T03:07:48.616Z,-0.50
2023-03-01T03:10:20.515Z,-0.52
2023-03-01T03:12:43.414Z,-0.54
2023-03-01T03:15:09.861Z,-0.56
2023-03-01T03:17:31.899Z,-0.62
2023-03-01T03:19:54.772Z,-0.66
2023-03-01T03:22:17.087Z,-0.66
2023-03-01T03:24:39.596Z,-0.65
2023-03-01T03:27:01.770Z,-0.68
2023-03-01T03:29:24.266Z,-0.67
2023-03-01T03:31:46.465Z,-0.70
2023-03-01T03:34:08.904Z,-0.71
2023-03-01T03:36:31.210Z,-0.76
2023-03-01T03:38:53.801Z,-0.77
2023-03-01T03:41:17.998Z,-0.77
2023-03-01T03:43:43.596Z,-0.78
2023-03-01T03:46:06.957Z,-0.79
2023-03-01T03:48:29.176Z,-0.81
2023-03-01T03:50:54.997Z,-0.80
2023-03-01T03:53:19.354Z,-0.78
2023-03-01T03:55:41.612Z,-0.80
2023-03-01T03:58:08.114Z,-0.81
2023-03-01T04:00:30.599Z,-0.83
2023-03-01T04:02:52.829Z,-0.83
2023-03-01T04:05:17.675Z,-0.80
2023-03-01T04:07:41.205Z,-0.83
2023-03-01T04:10:06.979Z,-0.86
2023-03-01T04:12:29.327Z,-0.84
2023-03-01T04:14:51.469Z,-0.81
2023-03-01T04:17:13.957Z,-0.81
2023-03-01T04:19:37.136Z,-0.82
2023-03-01T04:21:59.431Z,-0.80
2023-03-01T04:24:21.556Z,-0.79
2023-03-01T04:26:43.919Z,-0.77
2023-03-01T04:29:06.269Z,-0.77
2023-03-01T04:31:29.429Z,-0.80
2023-03-01T04:33:55.849Z,-0.81
2023-03-01T04:36:21.312Z,-0.84
2023-03-01T04:38:48.346Z,-0.88
2023-03-01T04:41:12.348Z,-0.90
2023-03-01T04:43:35.491Z,-0.87
2023-03-01T04:46:04.150Z,-0.88
2023-03-01T04:48:26.636Z,-0.89
2023-03-01T04:50:49.357Z,-0.91
2023-03-01T04:53:11.836Z,-0.90
2023-03-01T04:55:35.287Z,-0.90
2023-03-01T04:57:57.581Z,-0.93
2023-03-01T05:00:22.942Z,-0.93
2023-03-01T05:02:45.167Z,-0.92
2023-03-01T05:05:08.191Z,-0.95
2023-03-01T05:07:30.567Z,-1.00
2023-03-01T05:09:55.018Z,-1.02
2023-03-01T05:12:18.322Z,-1.01
2023-03-01T05:14:42.316Z,-1.00
2023-03-01T05:17:05.074Z,-1.00
2023-03-01T05:19:28.333Z,-1.00
2023-03-01T05:22:05.931Z,-1.02
2023-03-01T05:24:31.504Z,-1.06
2023-03-01T05:26:54.891Z,-1.08
2023-03-01T05:29:18.146Z,-1.05
2023-03-01T05:31:40.505Z,-1.03
2023-03-01T05:34:03.479Z,-1.02
2023-03-01T05:36:25.880Z,-1.03
2023-03-01T05:38:48.940Z,-1.07
2023-03-01T05:41:18.081Z,-1.07
2023-03-01T05:43:42.853Z,-1.06
2023-03-01T05:46:05.136Z,-1.03
2023-03-01T05:48:27.790Z,-1.01
2023-03-01T05:50:50.498Z,-0.99
2023-03-01T05:53:23.684Z,-1.00
2023-03-01T05:55:48.371Z,-1.01
2023-03-01T05:58:17.978Z,-1.03
2023-03-01T06:00:39.716Z,-1.05
2023-03-01T06:03:01.931Z,-1.06
2023-03-01T06:05:24.791Z,-1.05
2023-03-01T06:07:47.111Z,-1.04
2023-03-01T06:10:11.445Z,-1.05
2023-03-01T06:12:34.060Z,-1.07
2023-03-01T06:14:55.685Z,-1.13
2023-03-01T06:17:17.315Z,-1.16
2023-03-01T06:19:39.105Z,-1.18
2023-03-01T06:22:00.800Z,-1.17
2023-03-01T06:24:22.405Z,-1.16
2023-03-01T06:26:44.003Z,-1.16
2023-03-01T06:29:05.672Z,-1.15
2023-03-01T06:31:27.309Z,-1.14
2023-03-01T06:33:49.007Z,-1.15
2023-03-01T06:36:11.043Z,-1.16
2023-03-01T06:38:32.648Z,-1.15
2023-03-01T06:40:57.395Z,-1.12
2023-03-01T06:43:19.068Z,-1.11
2023-03-01T06:45:40.633Z,-1.08
2023-03-01T06:48:06.621Z,-1.03
2023-03-01T06:50:28.218Z,-0.99
2023-03-01T06:52:57.743Z,-0.93
2023-03-01T06:55:20.134Z,-0.87
2023-03-01T06:57:41.781Z,-0.75
2023-03-01T07:00:08.057Z,-0.61
2023-03-01T07:02:29.819Z,-0.46
2023-03-01T07:04:52.778Z,-0.34
2023-03-01T07:07:14.378Z,-0.05
2023-03-01T07:09:36.185Z,0.14
2023-03-01T07:11:58.704Z,0.32
2023-03-01T07:14:20.822Z,0.36
2023-03-01T07:16:42.484Z,0.33
2023-03-01T07:19:04.104Z,0.22
2023-03-01T07:21:25.673Z,0.11
2023-03-01T07:23:49.983Z,0.09
2023-03-01T07:26:11.524Z,0.07
2023-03-01T07:28:37.013Z,0.02
2023-03-01T07:31:03.999Z,0.10
2023-03-01T07:33:26.156Z,0.19
2023-03-01T07:35:47.824Z,0.26
2023-03-01T07:38:09.782Z,0.35
2023-03-01T07:40:31.421Z,0.47
2023-03-01T07:42:59.918Z,0.60
2023-03-01T07:45:21.596Z,0.70
2023-03-01T07:47:43.192Z,0.79
2023-03-01T07:50:06.350Z,0.87
2023-03-01T07:52:28.306Z,0.98
2023-03-01T07:54:49.981Z,1.03
2023-03-01T07:57:12.447Z,1.07
2023-03-01T07:59:34.457Z,1.10
2023-03-01T08:01:59.476Z,1.20
2023-03-01T08:04:21.109Z,1.25
2023-03-01T08:06:42.719Z,1.34
2023-03-01T08:09:04.392Z,1.45
2023-03-01T08:11:26.070Z,1.51
2023-03-01T08:13:51.444Z,1.57
2023-03-01T08:16:16.388Z,1.62
2023-03-01T08:18:39.140Z,1.70
2023-03-01T08:21:10.869Z,1.77
2023-03-01T08:23:32.806Z,1.85
2023-03-01T08:25:54.578Z,1.95
2023-03-01T08:28:16.207Z,2.05
2023-03-01T08:30:37.998Z,2.18
2023-03-01T08:32:59.618Z,2.28
2023-03-01T08:35:22.541Z,2.38
2023-03-01T08:37:44.339Z,2.44
2023-03-01T08:40:10.876Z,2.51
2023-03-01T08:42:33.812Z,2.62
2023-03-01T08:44:55.529Z,2.72
2023-03-01T08:47:17.301Z,2.84
2023-03-01T08:49:38.950Z,2.90
2023-03-01T08:52:00.600Z,2.98
2023-03-01T08:54:23.371Z,3.13
2023-03-01T08:56:45.783Z,3.19
2023-03-01T08:59:08.622Z,3.25
2023-03-01T09:01:30.372Z,3.34
2023-03-01T09:03:52.433Z,3.43
2023-03-01T09:06:15.072Z,3.49
2023-03-01T09:08:40.319Z,3.60
2023-03-01T09:11:09.044Z,3.70
2023-03-01T09:13:32.152Z,3.82
2023-03-01T09:15:53.771Z,3.94
2023-03-01T09:18:15.429Z,4.04
2023-03-01T09:20:37.037Z,4.17
2023-03-01T09:22:59.106Z,4.25
2023-03-01T09:25:20.678Z,4.34
2023-03-01T09:27:43.030Z,4.43
2023-03-01T09:30:05.681Z,4.49
2023-03-01T09:32:27.360Z,4.59
2023-03-01T09:35:07.392Z,4.72
2023-03-01T09:37:29.051Z,4.80
2023-03-01T09:39:50.629Z,4.86
2023-03-01T09:42:14.108Z,4.96
2023-03-01T09:45:02.214Z,4.99
2023-03-01T09:47:30.466Z,5.08
2023-03-01T09:50:19.739Z,5.27
2023-03-01T09:52:47.278Z,5.42
2023-03-01T09:55:17.352Z,5.55
2023-03-01T09:57:49.932Z,5.67
2023-03-01T10:00:40.630Z,5.78
2023-03-01T10:03:18.116Z,5.85
2023-03-01T10:05:55.954Z,5.94
2023-03-01T10:08:48.338Z,6.03
2023-03-01T10:11:25.094Z,6.17
2023-03-01T10:13:59.388Z,6.24
2023-03-01T10:16:48.801Z,6.31
2023-03-01T10:19:33.314Z,6.34
2023-03-01T10:21:58.610Z,6.39
2023-03-01T10:24:22.599Z,6.44
2023-03-01T10:27:12.527Z,6.51
2023-03-01T10:30:07.881Z,6.55
2023-03-01T10:32:30.595Z,6.56
2023-03-01T10:34:52.251Z,6.64
2023-03-01T10:37:22.579Z,6.72
2023-03-01T10:40:09.187Z,6.81
2023-03-01T10:42:50.572Z,6.89
2023-03-01T10:45:40.055Z,6.96
2023-03-01T10:48:28.554Z,6.97
2023-03-01T10:51:06.937Z,7.03
2023-03-01T10:53:33.540Z,7.10
2023-03-01T10:56:16.362Z,7.21
2023-03-01T10:58:41.398Z,7.23
2023-03-01T11:01:31.004Z,7.23
2023-03-01T11:04:08.246Z,7.33
2023-03-01T11:06:29.941Z,7.37
2023-03-01T11:08:52.937Z,7.37
2023-03-01T11:11:35.675Z,7.33
2023-03-01T11:14:28.014Z,7.19
2023-03-01T11:17:03.017Z,7.08
2023-03-01T11:19:25.050Z,7.02
2023-03-01T11:22:08.496Z,7.03
2023-03-01T11:24:46.152Z,7.19
2023-03-01T11:27:27.265Z,7.23
2023-03-01T11:30:13.308Z,7.22
2023-03-01T11:32:47.522Z,7.30
2023-03-01T11:35:27.916Z,7.31
2023-03-01T11:37:58.504Z,7.42
2023-03-01T11:40:35.494Z,7.55
2023-03-01T11:43:03.918Z,7.63
2023-03-01T11:45:39.900Z,7.70
2023-03-01T11:48:01.406Z,7.77
2023-03-01T11:50:40.457Z,7.82
2023-03-01T11:53:54.417Z,7.76
2023-03-01T11:56:35.225Z,7.71
2023-03-01T11:59:36.928Z,7.80
2023-03-01T12:02:10.673Z,7.89
2023-03-01T12:05:01.095Z,7.86
2023-03-01T12:07:48.972Z,7.76
2023-03-01T12:10:51.083Z,7.83
2023-03-01T12:13:44.628Z,7.91
2023-03-01T12:16:38.306Z,7.92
2023-03-01T12:19:52.658Z,8.01
2023-03-01T12:23:20.677Z,8.10
2023-03-01T12:25:52.346Z,8.15
2023-03-01T12:28:39.919Z,8.19
2023-03-01T12:31:29.426Z,8.26
2023-03-01T12:34:10.673Z,8.20
2023-03-01T12:36:41.424Z,8.09
2023-03-01T12:39:27.565Z,8.08
2023-03-01T12:42:07.544Z,8.20
2023-03-01T12:44:50.409Z,8.14
2023-03-01T12:47:50.932Z,8.07
2023-03-01T12:50:21.744Z,8.00
2023-03-01T12:52:56.512Z,7.94
2023-03-01T12:55:27.308Z,7.90
2023-03-01T12:58:22.088Z,7.91
2023-03-01T13:01:18.968Z,7.98
2023-03-01T13:04:18.446Z,8.12
2023-03-01T13:06:56.097Z,8.09
2023-03-01T13:09:44.670Z,8.15
2023-03-01T13:12:51.038Z,8.18
2023-03-01T13:15:24.924Z,8.21
2023-03-01T13:17:46.989Z,8.24
2023-03-01T13:20:16.980Z,8.24
2023-03-01T13:22:46.870Z,8.17
2023-03-01T13:25:20.340Z,8.08
2023-03-01T13:27:42.164Z,8.05
2023-03-01T13:30:08.075Z,8.07
2023-03-01T13:32:43.512Z,8.17
2023-03-01T13:35:15.974Z,8.14
2023-03-01T13:37:38.979Z,8.12
2023-03-01T13:40:25.072Z,8.13
2023-03-01T13:42:59.293Z,8.17
2023-03-01T13:45:35.544Z,8.13
2023-03-01T13:48:05.883Z,8.15
2023-03-01T13:50:34.862Z,8.19
2023-03-01T13:53:02.646Z,8.18
2023-03-01T13:55:38.274Z,8.21
2023-03-01T13:58:05.298Z,8.28
2023-03-01T14:00:41.130Z,8.24
2023-03-01T14:03:17.692Z,8.26
2023-03-01T14:05:43.795Z,8.17
2023-03-01T14:08:18.372Z,8.24
2023-03-01T14:10:57.567Z,8.22
2023-03-01T14:14:10.635Z,8.28
2023-03-01T14:16:57.238Z,8.32
2023-03-01T14:19:34.496Z,8.35
2023-03-01T14:22:29.834Z,8.37
2023-03-01T14:24:57.231Z,8.34
2023-03-01T14:27:20.005Z,8.32
2023-03-01T14:29:42.041Z,8.35
2023-03-01T14:32:31.811Z,8.47
2023-03-01T14:34:54.053Z,8.50
2023-03-01T14:37:35.526Z,8.51
2023-03-01T14:39:59.656Z,8.46
2023-03-01T14:42:25.960Z,8.39
2023-03-01T14:44:53.450Z,8.40
2023-03-01T14:47:36.728Z,8.47
2023-03-01T14:50:05.780Z,8.46
2023-03-01T14:52:40.200Z,8.49
2023-03-01T14:55:07.747Z,8.44
2023-03-01T14:57:29.395Z,8.42
2023-03-01T14:59:55.608Z,8.46
2023-03-01T15:02:23.060Z,8.45
2023-03-01T15:04:51.454Z,8.45
2023-03-01T15:07:15.494Z,8.42
2023-03-01T15:09:38.243Z,8.36
2023-03-01T15:11:59.962Z,8.35
2023-03-01T15:14:49.470Z,8.37
2023-03-01T15:17:33.359Z,8.27
2023-03-01T15:19:55.020Z,8.19
2023-03-01T15:22:17.889Z,8.18
2023-03-01T15:24:39.574Z,8.15
2023-03-01T15:27:07.809Z,8.14
2023-03-01T15:29:34.233Z,8.12
2023-03-01T15:32:05.578Z,8.12
2023-03-01T15:34:33.407Z,8.08
2023-03-01T15:36:59.115Z,8.15
2023-03-01T15:39:54.975Z,8.09
2023-03-01T15:42:28.618Z,8.12
2023-03-01T15:44:50.212Z,8.15
2023-03-01T15:47:29.888Z,8.23
2023-03-01T15:49:55.949Z,8.18
2023-03-01T15:52:37.582Z,8.17
2023-03-01T15:55:03.803Z,8.12
2023-03-01T15:57:25.765Z,8.09
2023-03-01T15:59:47.828Z,8.08
2023-03-01T16:02:16.011Z,8.02
2023-03-01T16:04:37.682Z,7.96
2023-03-01T16:06:59.336Z,7.90
2023-03-01T16:09:24.193Z,7.87
2023-03-01T16:11:45.789Z,7.84
2023-03-01T16:14:07.612Z,7.81
2023-03-01T16:16:29.643Z,7.80
2023-03-01T16:18:55.381Z,7.76
2023-03-01T16:21:26.208Z,7.73
2023-03-01T16:23:48.300Z,7.70
2023-03-01T16:26:11.466Z,7.65
2023-03-01T16:28:33.019Z,7.61
2023-03-01T16:30:54.622Z,7.60
2023-03-01T16:33:30.164Z,7.57
2023-03-01T16:35:56.347Z,7.49
2023-03-01T16:38:18.072Z,7.41
2023-03-01T16:40:39.817Z,7.40
2023-03-01T16:43:02.164Z,7.34
2023-03-01T16:45:25.270Z,7.27
2023-03-01T16:47:47.105Z,7.23
2023-03-01T16:50:09.981Z,7.19
2023-03-01T16:52:31.782Z,7.14
2023-03-01T16:54:53.395Z,7.07
2023-03-01T16:57:15.543Z,7.01
2023-03-01T16:59:38.287Z,6.97
2023-03-01T17:01:59.883Z,6.90
2023-03-01T17:04:21.475Z,6.79
2023-03-01T17:06:43.069Z,6.74
2023-03-01T17:09:04.682Z,6.67
2023-03-01T17:11:26.492Z,6.60
2023-03-01T17:13:49.464Z,6.53
2023-03-01T17:16:17.011Z,6.45
2023-03-01T17:18:39.153Z,6.34
2023-03-01T17:21:01.585Z,6.29
2023-03-01T17:23:23.265Z,6.18
2023-03-01T17:25:45.752Z,6.08
2023-03-01T17:28:07.743Z,5.97
2023-03-01T17:30:29.398Z,5.92
2023-03-01T17:32:53.217Z,5.83
2023-03-01T17:35:14.938Z,5.82
2023-03-01T17:37:37.798Z,5.78
2023-03-01T17:39:59.742Z,5.76
2023-03-01T17:42:21.398Z,5.71
2023-03-01T17:44:43.851Z,5.64
2023-03-01T17:47:06.239Z,5.51
2023-03-01T17:49:27.941Z,5.48
2023-03-01T17:51:49.688Z,5.39
2023-03-01T17:54:11.819Z,5.33
2023-03-01T17:56:33.946Z,5.27
2023-03-01T17:58:55.734Z,5.23
2023-03-01T18:01:22.166Z,5.20
2023-03-01T18:03:46.582Z,5.15
2023-03-01T18:06:23.099Z,5.12
2023-03-01T18:08:46.426Z,5.04
2023-03-01T18:11:08.791Z,5.00
2023-03-01T18:13:30.385Z,4.94
2023-03-01T18:15:52.635Z,4.88
2023-03-01T18:18:14.230Z,4.82
2023-03-01T18:20:35.881Z,4.77
2023-03-01T18:22:57.606Z,4.73
2023-03-01T18:25:20.337Z,4.71
2023-03-01T18:27:41.984Z,4.69
2023-03-01T18:30:08.933Z,4.63
2023-03-01T18:32:30.732Z,4.60
2023-03-01T18:34:52.507Z,4.57
2023-03-01T18:37:14.510Z,4.56
2023-03-01T18:39:36.126Z,4.55
2023-03-01T18:41:57.769Z,4.55
2023-03-01T18:44:19.435Z,4.56
2023-03-01T18:46:41.151Z,4.56
2023-03-01T18:49:02.975Z,4.57
2023-03-01T18:51:28.991Z,4.55
2023-03-01T18:53:50.739Z,4.53
2023-03-01T18:56:13.188Z,4.52
2023-03-01T18:58:35.693Z,4.49
2023-03-01T19:00:57.420Z,4.44
2023-03-01T19:03:19.056Z,4.40
2023-03-01T19:05:41.252Z,4.35
2023-03-01T19:08:03.024Z,4.28
2023-03-01T19:10:24.933Z,4.23
2023-03-01T19:12:46.949Z,4.18
2023-03-01T19:15:09.469Z,4.14
2023-03-01T19:17:31.194Z,4.10
2023-03-01T19:19:52.895Z,4.03
2023-03-01T19:22:14.623Z,3.95
2023-03-01T19:24:36.189Z,3.88
2023-03-01T19:26:57.911Z,3.84
2023-03-01T19:29:19.698Z,3.81
2023-03-01T19:31:41.475Z,3.78
2023-03-01T19:34:11.402Z,3.77
2023-03-01T19:36:33.681Z,3.73
2023-03-01T19:38:55.475Z,3.62
2023-03-01T19:41:18.301Z,3.55
2023-03-01T19:43:40.003Z,3.47
2023-03-01T19:46:02.099Z,3.41
2023-03-01T19:48:24.041Z,3.37
2023-03-01T19:50:46.088Z,3.31
2023-03-01T19:53:07.736Z,3.26
2023-03-01T19:55:29.403Z,3.24
2023-03-01T19:57:51.052Z,3.25
2023-03-01T20:00:13.300Z,3.29
2023-03-01T20:02:35.068Z,3.31
2023-03-01T20:04:57.181Z,3.34
2023-03-01T20:07:18.781Z,3.35
2023-03-01T20:09:41.659Z,3.37
2023-03-01T20:12:06.475Z,3.36
2023-03-01T20:14:28.426Z,3.37
2023-03-01T20:16:50.093Z,3.36
2023-03-01T20:19:11.745Z,3.34
2023-03-01T20:21:34.000Z,3.30
2023-03-01T20:23:55.721Z,3.26
2023-03-01T20:26:19.664Z,3.22
2023-03-01T20:28:42.970Z,3.19
2023-03-01T20:31:09.587Z,3.15
2023-03-01T20:33:31.330Z,3.11
2023-03-01T20:35:54.479Z,3.09
2023-03-01T20:38:16.781Z,3.11
2023-03-01T20:40:38.473Z,3.11
2023-03-01T20:43:00.943Z,3.11
2023-03-01T20:45:23.955Z,3.14
2023-03-01T20:47:45.627Z,3.12
2023-03-01T20:50:07.613Z,3.13
2023-03-01T20:52:34.263Z,3.14
2023-03-01T20:54:58.371Z,3.16
2023-03-01T20:57:19.983Z,3.14
2023-03-01T20:59:41.552Z,3.13
2023-03-01T21:02:03.800Z,3.12
2023-03-01T21:04:25.435Z,3.13
2023-03-01T21:06:47.125Z,3.16
2023-03-01T21:09:09.072Z,3.15
2023-03-01T21:11:30.828Z,3.18
2023-03-01T21:13:54.362Z,3.19
2023-03-01T21:16:16.906Z,3.16
2023-03-01T21:18:39.509Z,3.17
2023-03-01T21:21:12.499Z,3.18
2023-03-01T21:23:36.581Z,3.14
2023-03-01T21:26:12.468Z,3.13
2023-03-01T21:28:35.263Z,3.10
2023-03-01T21:31:14.442Z,3.06
2023-03-01T21:33:38.445Z,3.03
2023-03-01T21:36:06.711Z,3.00
2023-03-01T21:38:35.454Z,2.97
2023-03-01T21:40:57.305Z,2.95
2023-03-01T21:43:18.863Z,2.93
2023-03-01T21:45:40.407Z,2.90
2023-03-01T21:48:02.322Z,2.87
2023-03-01T21:50:24.281Z,2.84
2023-03-01T21:52:45.981Z,2.77
2023-03-01T21:55:09.072Z,2.74
2023-03-01T21:57:30.747Z,2.69
2023-03-01T21:59:52.329Z,2.61
2023-03-01T22:02:14.639Z,2.54
2023-03-01T22:04:36.283Z,2.43
2023-03-01T22:06:57.914Z,2.38
2023-03-01T22:09:23.104Z,2.38
2023-03-01T22:12:02.081Z,2.40
2023-03-01T22:14:24.444Z,2.41
2023-03-01T22:16:48.011Z,2.41
2023-03-01T22:19:09.925Z,2.44
2023-03-01T22:21:31.588Z,2.46
2023-03-01T22:23:55.368Z,2.46
2023-03-01T22:26:32.080Z,2.46
2023-03-01T22:28:57.402Z,2.41
2023-03-01T22:31:19.246Z,2.34
2023-03-01T22:33:40.850Z,2.28
2023-03-01T22:36:02.664Z,2.26
2023-03-01T22:38:24.272Z,2.22
2023-03-01T22:40:45.942Z,2.22
2023-03-01T22:43:07.733Z,2.20
2023-03-01T22:45:32.261Z,2.18
2023-03-01T22:47:54.044Z,2.18
2023-03-01T22:50:16.375Z,2.15
2023-03-01T22:52:39.724Z,2.12
2023-03-01T22:55:01.382Z,2.08
2023-03-01T22:57:22.952Z,2.09
2023-03-01T22:59:44.522Z,2.07
2023-03-01T23:02:06.206Z,2.06
2023-03-01T23:04:28.013Z,2.04
2023-03-01T23:06:56.019Z,2.00
2023-03-01T23:09:22.720Z,1.97
2023-03-01T23:11:44.657Z,1.92
2023-03-01T23:14:06.296Z,1.91
2023-03-01T23:16:28.042Z,1.92
2023-03-01T23:18:49.652Z,1.90
2023-03-01T23:21:17.451Z,1.88
2023-03-01T23:23:39.142Z,1.83
2023-03-01T23:26:00.759Z,1.78
2023-03-01T23:28:24.820Z,1.73
2023-03-01T23:31:04.909Z,1.66
2023-03-01T23:33:28.861Z,1.60
2023-03-01T23:35:50.769Z,1.56
2023-03-01T23:38:12.401Z,1.56
2023-03-01T23:40:34.029Z,1.58
2023-03-01T23:42:55.613Z,1.59
2023-03-01T23:45:17.434Z,1.58
2023-03-01T23:47:39.277Z,1.60
2023-03-01T23:50:01.092Z,1.64
2023-03-01T23:52:23.778Z,1.66
2023-03-01T23:54:45.396Z,1.71
2023-03-01T23:57:07.009Z,1.74
2023-03-01T23:59:28.614Z,1.74
